createdAt,value
2022-08-25T00:01:59.684Z,37.10
2022-08-25T00:04:29.610Z,37.17
2022-08-25T00:07:02.221Z,37.02
2022-08-25T00:09:31.576Z,37.03
2022-08-25T00:11:58.975Z,36.97
2022-08-25T00:14:28.124Z,36.98
2022-08-25T00:16:56.198Z,36.79
2022-08-25T00:19:26.340Z,36.58
2022-08-25T00:21:53.683Z,36.67
2022-08-25T00:24:21.517Z,36.67
2022-08-25T00:26:50.898Z,36.62
2022-08-25T00:29:18.687Z,36.92
2022-08-25T00:31:46.176Z,36.39
2022-08-25T00:34:16.445Z,36.53
2022-08-25T00:36:45.065Z,36.41
2022-08-25T00:39:12.349Z,36.47
2022-08-25T00:41:41.166Z,36.63
2022-08-25T00:44:09.527Z,36.23
2022-08-25T00:46:39.247Z,36.14
2022-08-25T00:49:09.935Z,36.49
2022-08-25T00:51:48.671Z,36.26
2022-08-25T00:54:17.942Z,36.51
2022-08-25T00:56:46.174Z,36.50
2022-08-25T00:59:13.907Z,36.15
2022-08-25T01:01:41.287Z,36.13
2022-08-25T01:04:08.909Z,36.22
2022-08-25T01:06:37.337Z,36.10
2022-08-25T01:09:05.365Z,36.29
2022-08-25T01:11:33.049Z,36.04
2022-08-25T01:14:03.543Z,36.18
2022-08-25T01:16:32.017Z,36.19
2022-08-25T01:19:00.614Z,36.12
2022-08-25T01:21:29.431Z,36.14
2022-08-25T01:23:58.333Z,36.03
2022-08-25T01:26:30.330Z,35.90
2022-08-25T01:29:17.568Z,35.99
2022-08-25T01:31:45.259Z,35.89
2022-08-25T01:34:13.126Z,35.90
2022-08-25T01:36:42.013Z,35.75
2022-08-25T01:39:10.038Z,35.74
2022-08-25T01:41:43.562Z,35.69
2022-08-25T01:44:15.914Z,35.57
2022-08-25T01:46:44.434Z,35.47
2022-08-25T01:49:11.699Z,35.59
2022-08-25T01:51:42.650Z,35.56
2022-08-25T01:54:10.110Z,35.54
2022-08-25T01:56:38.127Z,35.61
2022-08-25T01:59:05.478Z,35.71
2022-08-25T02:01:32.879Z,35.55
2022-08-25T02:04:00.200Z,35.64
2022-08-25T02:06:30.015Z,35.57
2022-08-25T02:08:59.347Z,35.38
2022-08-25T02:11:27.037Z,35.37
2022-08-25T02:13:54.418Z,35.31
2022-08-25T02:16:25.364Z,35.44
2022-08-25T02:18:53.178Z,35.39
2022-08-25T02:21:20.821Z,35.37
2022-08-25T02:23:48.303Z,35.14
2022-08-25T02:26:19.001Z,35.26
2022-08-25T02:28:47.288Z,35.27
2022-08-25T02:31:15.216Z,35.31
2022-08-25T02:33:42.686Z,35.34
2022-08-25T02:36:10.388Z,35.04
2022-08-25T02:38:38.569Z,35.04
2022-08-25T02:41:13.563Z,35.12
2022-08-25T02:43:41.693Z,35.02
2022-08-25T02:46:09.944Z,35.04
2022-08-25T02:48:37.629Z,34.96
2022-08-25T02:51:06.567Z,34.67
2022-08-25T02:53:34.495Z,34.85
2022-08-25T02:56:01.736Z,35.02
2022-08-25T02:58:29.232Z,34.83
2022-08-25T03:00:56.798Z,34.74
2022-08-25T03:03:24.147Z,34.66
2022-08-25T03:05:51.411Z,34.67
2022-08-25T03:08:18.765Z,34.62
2022-08-25T03:10:46.013Z,34.58
2022-08-25T03:13:14.762Z,34.47
2022-08-25T03:15:42.618Z,34.59
2022-08-25T03:18:11.767Z,34.65
2022-08-25T03:20:41.420Z,34.40
2022-08-25T03:23:08.805Z,34.26
2022-08-25T03:25:54.770Z,34.32
2022-08-25T03:28:29.824Z,34.37
2022-08-25T03:30:57.593Z,34.15
2022-08-25T03:33:24.812Z,34.35
2022-08-25T03:35:52.382Z,34.30
2022-08-25T03:38:19.807Z,34.29
2022-08-25T03:40:47.127Z,34.21
2022-08-25T03:43:14.365Z,34.31
2022-08-25T03:45:42.384Z,34.22
2022-08-25T03:48:09.710Z,34.29
2022-08-25T03:50:37.851Z,34.24
2022-08-25T03:53:05.249Z,34.18
2022-08-25T03:55:32.619Z,33.98
2022-08-25T03:58:00.004Z,33.91
2022-08-25T04:00:27.594Z,34.21
2022-08-25T04:02:54.833Z,34.26
2022-08-25T04:05:22.109Z,34.50
2022-08-25T04:07:49.385Z,34.51
2022-08-25T04:10:16.683Z,34.70
2022-08-25T04:12:43.907Z,34.75
2022-08-25T04:15:11.440Z,34.95
2022-08-25T04:17:40.095Z,34.96
2022-08-25T04:20:08.855Z,35.12
2022-08-25T04:22:37.097Z,35.09
2022-08-25T04:25:06.161Z,35.25
2022-08-25T04:27:33.964Z,35.21
2022-08-25T04:30:01.318Z,35.15
2022-08-25T04:32:28.547Z,35.17
2022-08-25T04:34:55.787Z,35.11
2022-08-25T04:37:23.043Z,35.18
2022-08-25T04:39:50.534Z,35.01
2022-08-25T04:42:17.816Z,35.08
2022-08-25T04:44:45.247Z,35.05
2022-08-25T04:47:12.509Z,35.17
2022-08-25T04:49:40.043Z,35.34
2022-08-25T04:52:07.796Z,35.24
2022-08-25T04:54:42.507Z,35.38
2022-08-25T04:57:10.065Z,35.57
2022-08-25T04:59:37.328Z,35.35
2022-08-25T05:02:06.658Z,35.21
2022-08-25T05:04:35.552Z,35.42
2022-08-25T05:07:03.416Z,35.60
2022-08-25T05:09:32.508Z,35.58
2022-08-25T05:12:03.157Z,35.61
2022-08-25T05:14:31.039Z,35.45
2022-08-25T05:16:59.749Z,35.65
2022-08-25T05:19:27.482Z,35.77
2022-08-25T05:21:54.748Z,35.65
2022-08-25T05:24:25.844Z,35.67
2022-08-25T05:26:53.284Z,35.66
2022-08-25T05:29:20.680Z,35.74
2022-08-25T05:31:50.558Z,35.75
2022-08-25T05:34:19.664Z,35.57
2022-08-25T05:36:47.793Z,35.69
2022-08-25T05:39:15.101Z,35.66
2022-08-25T05:41:42.421Z,35.86
2022-08-25T05:44:10.002Z,35.80
2022-08-25T05:46:37.349Z,35.94
2022-08-25T05:49:04.904Z,35.84
2022-08-25T05:51:32.163Z,36.13
2022-08-25T05:53:59.960Z,35.97
2022-08-25T05:56:27.201Z,36.35
2022-08-25T05:58:54.549Z,36.27
2022-08-25T06:01:43.519Z,36.65
2022-08-25T06:04:13.220Z,36.08
2022-08-25T06:06:40.801Z,36.20
2022-08-25T06:09:09.635Z,36.46
2022-08-25T06:11:38.005Z,36.56
2022-08-25T06:14:05.527Z,36.38
2022-08-25T06:16:33.137Z,36.30
2022-08-25T06:19:01.312Z,36.43
2022-08-25T06:21:29.150Z,36.45
2022-08-25T06:23:56.764Z,36.44
2022-08-25T06:26:24.582Z,36.44
2022-08-25T06:28:52.242Z,36.30
2022-08-25T06:31:20.594Z,36.41
2022-08-25T06:33:48.546Z,36.49
2022-08-25T06:36:16.004Z,36.24
2022-08-25T06:38:43.793Z,36.28
2022-08-25T06:41:11.048Z,36.44
2022-08-25T06:43:41.679Z,36.12
2022-08-25T06:46:14.284Z,36.31
2022-08-25T06:48:42.053Z,36.26
2022-08-25T06:51:14.083Z,36.28
2022-08-25T06:53:43.101Z,36.25
2022-08-25T06:56:10.945Z,36.14
2022-08-25T06:58:38.860Z,36.29
2022-08-25T07:01:13.450Z,36.30
2022-08-25T07:03:43.778Z,36.27
2022-08-25T07:06:11.055Z,36.32
2022-08-25T07:08:40.618Z,36.10
2022-08-25T07:11:14.590Z,36.33
2022-08-25T07:13:44.450Z,36.17
2022-08-25T07:16:12.036Z,36.45
2022-08-25T07:18:39.401Z,36.35
2022-08-25T07:21:08.802Z,36.56
2022-08-25T07:23:37.292Z,36.52
2022-08-25T07:26:33.668Z,36.27
2022-08-25T07:29:00.105Z,36.34
2022-08-25T07:31:29.523Z,36.57
2022-08-25T07:34:16.558Z,36.34
2022-08-25T07:36:44.387Z,36.34
2022-08-25T07:39:11.854Z,36.30
2022-08-25T07:41:40.542Z,36.37
2022-08-25T07:44:08.780Z,36.65
2022-08-25T07:46:36.114Z,36.95
2022-08-25T07:49:03.538Z,36.82
2022-08-25T07:51:31.166Z,37.11
2022-08-25T07:53:59.284Z,37.27
2022-08-25T07:56:28.731Z,37.15
2022-08-25T07:58:56.293Z,37.31
2022-08-25T08:01:24.587Z,37.29
2022-08-25T08:03:52.252Z,37.40
2022-08-25T08:06:22.433Z,37.45
2022-08-25T08:08:50.766Z,37.18
2022-08-25T08:11:26.377Z,37.11
2022-08-25T08:13:54.636Z,37.23
2022-08-25T08:16:23.358Z,37.62
2022-08-25T08:18:51.095Z,37.48
2022-08-25T08:21:23.953Z,37.22
2022-08-25T08:23:56.641Z,37.25
2022-08-25T08:26:36.277Z,37.34
2022-08-25T08:29:14.809Z,37.47
2022-08-25T08:31:48.644Z,37.12
2022-08-25T08:34:17.141Z,37.18
2022-08-25T08:36:45.380Z,37.26
2022-08-25T08:39:12.761Z,37.30
2022-08-25T08:42:12.425Z,37.61
2022-08-25T08:44:52.426Z,37.50
2022-08-25T08:47:19.782Z,37.08
2022-08-25T08:49:59.062Z,37.37
2022-08-25T08:52:44.870Z,37.31
2022-08-25T08:55:28.380Z,37.55
2022-08-25T08:57:57.989Z,37.30
2022-08-25T09:00:26.340Z,37.37
2022-08-25T09:02:53.568Z,37.23
2022-08-25T09:05:23.135Z,37.29
2022-08-25T09:08:11.780Z,37.27
2022-08-25T09:10:54.314Z,37.23
2022-08-25T09:13:41.912Z,37.24
2022-08-25T09:16:36.762Z,37.07
2022-08-25T09:19:23.877Z,37.29
2022-08-25T09:22:33.628Z,37.73
2022-08-25T09:25:21.922Z,37.26
2022-08-25T09:28:02.531Z,37.33
2022-08-25T09:30:34.623Z,37.43
2022-08-25T09:33:05.197Z,37.40
2022-08-25T09:35:34.844Z,37.25
2022-08-25T09:38:04.492Z,37.33
2022-08-25T09:40:33.896Z,37.35
2022-08-25T09:43:03.151Z,37.40
2022-08-25T09:45:32.653Z,36.95
2022-08-25T09:48:00.023Z,37.53
2022-08-25T09:50:30.759Z,37.29
2022-08-25T09:53:18.614Z,37.03
2022-08-25T09:55:47.544Z,37.41
2022-08-25T09:58:20.183Z,37.61
2022-08-25T10:01:05.438Z,37.69
2022-08-25T10:03:36.551Z,37.27
2022-08-25T10:06:23.143Z,37.34
2022-08-25T10:08:50.920Z,37.68
2022-08-25T10:11:38.040Z,37.92
2022-08-25T10:14:16.301Z,37.36
2022-08-25T10:16:46.900Z,37.86
2022-08-25T10:19:14.460Z,37.76
2022-08-25T10:21:42.635Z,37.88
2022-08-25T10:24:11.990Z,37.76
2022-08-25T10:26:42.596Z,37.74
2022-08-25T10:29:17.324Z,37.62
2022-08-25T10:31:52.028Z,37.79
2022-08-25T10:34:29.436Z,37.46
2022-08-25T10:37:20.170Z,37.57
2022-08-25T10:40:02.226Z,37.58
2022-08-25T10:42:48.539Z,37.31
2022-08-25T10:45:44.025Z,37.57
2022-08-25T10:48:43.785Z,37.60
2022-08-25T10:51:25.299Z,37.41
2022-08-25T10:54:02.190Z,37.44
2022-08-25T10:56:34.130Z,37.15
2022-08-25T10:59:26.870Z,37.27
2022-08-25T11:01:54.226Z,37.44
2022-08-25T11:04:31.088Z,37.59
2022-08-25T11:07:00.479Z,37.22
2022-08-25T11:09:30.786Z,37.30
2022-08-25T11:12:04.029Z,37.34
2022-08-25T11:14:35.268Z,37.58
2022-08-25T11:17:05.417Z,37.33
2022-08-25T11:19:38.176Z,37.42
2022-08-25T11:22:09.621Z,37.67
2022-08-25T11:24:37.586Z,37.54
2022-08-25T11:27:06.807Z,37.37
2022-08-25T11:29:36.866Z,37.51
2022-08-25T11:32:07.125Z,37.37
2022-08-25T11:34:36.077Z,37.47
2022-08-25T11:37:21.389Z,37.47
2022-08-25T11:39:55.017Z,37.61
2022-08-25T11:42:43.068Z,37.63
2022-08-25T11:45:16.596Z,37.64
2022-08-25T11:47:51.409Z,37.64
2022-08-25T11:50:22.028Z,37.82
2022-08-25T11:52:57.864Z,37.63
2022-08-25T11:55:31.516Z,37.36
2022-08-25T11:58:17.495Z,37.42
2022-08-25T12:00:46.571Z,37.32
2022-08-25T12:03:31.969Z,37.56
2022-08-25T12:06:14.368Z,37.38
2022-08-25T12:08:50.982Z,37.44
2022-08-25T12:11:41.706Z,37.49
2022-08-25T12:14:16.617Z,37.67
2022-08-25T12:16:56.417Z,37.97
2022-08-25T12:19:23.825Z,37.71
2022-08-25T12:21:51.807Z,37.67
2022-08-25T12:24:22.173Z,37.57
2022-08-25T12:26:58.195Z,37.32
2022-08-25T12:29:25.556Z,37.44
2022-08-25T12:32:12.125Z,37.47
2022-08-25T12:34:39.588Z,37.77
2022-08-25T12:37:15.299Z,37.70
2022-08-25T12:39:51.905Z,37.57
2022-08-25T12:42:23.277Z,37.81
2022-08-25T12:45:08.976Z,37.64
2022-08-25T12:47:38.428Z,37.63
2022-08-25T12:50:26.194Z,37.81
2022-08-25T12:52:54.040Z,37.22
2022-08-25T12:55:24.276Z,37.60
2022-08-25T12:57:57.930Z,37.53
2022-08-25T13:03:09.453Z,37.76
2022-08-25T13:05:52.433Z,37.71
2022-08-25T13:08:42.176Z,37.39
2022-08-25T13:11:17.847Z,37.43
2022-08-25T13:14:10.723Z,37.54
2022-08-25T13:16:38.096Z,37.71
2022-08-25T13:19:06.756Z,37.77
2022-08-25T13:21:39.085Z,37.78
2022-08-25T13:24:07.352Z,37.73
2022-08-25T13:26:48.029Z,37.78
2022-08-25T13:29:19.719Z,37.80
2022-08-25T13:31:52.155Z,37.92
2022-08-25T13:34:22.283Z,37.93
2022-08-25T13:37:08.789Z,37.90
2022-08-25T13:39:55.354Z,38.12
2022-08-25T13:42:24.499Z,38.16
2022-08-25T13:44:56.513Z,38.26
2022-08-25T13:47:43.617Z,38.15
2022-08-25T13:50:15.683Z,37.95
2022-08-25T13:52:48.550Z,38.11
2022-08-25T13:55:20.997Z,38.15
2022-08-25T13:57:48.398Z,38.21
2022-08-25T14:00:25.784Z,38.18
2022-08-25T14:03:00.106Z,38.15
2022-08-25T14:05:38.488Z,37.91
2022-08-25T14:08:23.468Z,38.25
2022-08-25T14:11:03.068Z,38.27
2022-08-25T14:13:32.859Z,38.38
2022-08-25T14:16:15.038Z,38.19
2022-08-25T14:18:50.447Z,38.52
2022-08-25T14:21:19.200Z,38.14
2022-08-25T14:23:46.489Z,38.06
2022-08-25T14:26:14.195Z,38.14
2022-08-25T14:28:41.466Z,38.17
2022-08-25T14:31:11.109Z,37.97
2022-08-25T14:33:59.351Z,38.17
2022-08-25T14:36:26.770Z,38.18
2022-08-25T14:38:56.991Z,38.04
2022-08-25T14:41:24.874Z,38.32
2022-08-25T14:43:52.364Z,38.49
2022-08-25T14:46:21.485Z,38.26
2022-08-25T14:48:55.447Z,38.53
2022-08-25T14:51:24.364Z,38.29
2022-08-25T14:53:57.558Z,38.30
2022-08-25T14:56:25.197Z,38.42
2022-08-25T14:58:55.519Z,38.12
2022-08-25T15:01:29.384Z,38.02
2022-08-25T15:04:00.970Z,37.97
2022-08-25T15:06:28.624Z,37.96
2022-08-25T15:09:11.012Z,38.02
2022-08-25T15:11:50.600Z,37.99
2022-08-25T15:14:19.205Z,38.20
2022-08-25T15:16:57.197Z,37.92
2022-08-25T15:19:25.581Z,38.09
2022-08-25T15:21:53.377Z,37.93
2022-08-25T15:24:25.866Z,37.92
2022-08-25T15:29:30.082Z,38.14
2022-08-25T15:31:58.988Z,37.80
2022-08-25T15:34:26.578Z,38.02
2022-08-25T15:36:54.105Z,37.86
2022-08-25T15:39:21.555Z,37.95
2022-08-25T15:41:52.277Z,37.70
2022-08-25T15:44:20.021Z,38.06
2022-08-25T15:46:49.906Z,38.07
2022-08-25T15:49:20.607Z,37.91
2022-08-25T15:51:54.884Z,37.74
2022-08-25T15:54:22.704Z,37.71
2022-08-25T15:56:50.098Z,37.56
2022-08-25T15:59:19.546Z,37.75
2022-08-25T16:01:53.527Z,37.71
2022-08-25T16:04:22.355Z,37.74
2022-08-25T16:06:51.959Z,37.36
2022-08-25T16:09:22.884Z,37.62
2022-08-25T16:11:55.814Z,37.30
2022-08-25T16:14:24.772Z,37.30
2022-08-25T16:16:52.649Z,37.36
2022-08-25T16:19:20.060Z,37.30
2022-08-25T16:21:47.293Z,37.27
2022-08-25T16:24:15.553Z,37.49
2022-08-25T16:26:48.609Z,37.36
2022-08-25T16:29:16.821Z,37.22
2022-08-25T16:31:44.713Z,37.17
2022-08-25T16:34:12.267Z,37.51
2022-08-25T16:36:40.391Z,37.37
2022-08-25T16:39:09.928Z,37.46
2022-08-25T16:41:37.561Z,37.23
2022-08-25T16:44:11.079Z,37.40
2022-08-25T16:46:39.518Z,37.33
2022-08-25T16:49:09.009Z,37.63
2022-08-25T16:51:36.836Z,37.53
2022-08-25T16:54:22.978Z,37.43
2022-08-25T16:56:55.194Z,37.29
2022-08-25T16:59:23.834Z,37.37
2022-08-25T17:01:51.698Z,37.33
2022-08-25T17:04:19.852Z,37.47
2022-08-25T17:06:51.711Z,37.52
2022-08-25T17:09:23.948Z,37.44
2022-08-25T17:11:54.287Z,37.49
2022-08-25T17:14:21.900Z,37.48
2022-08-25T17:16:51.316Z,37.58
2022-08-25T17:19:18.972Z,37.54
2022-08-25T17:21:49.869Z,37.67
2022-08-25T17:24:18.553Z,37.44
2022-08-25T17:26:47.318Z,37.50
2022-08-25T17:29:17.416Z,37.65
2022-08-25T17:31:48.345Z,37.56
2022-08-25T17:34:16.937Z,37.61
2022-08-25T17:36:50.147Z,37.73
2022-08-25T17:39:18.494Z,37.49
2022-08-25T17:41:46.001Z,37.82
2022-08-25T17:44:13.635Z,37.65
2022-08-25T17:46:47.579Z,37.71
2022-08-25T17:49:18.171Z,37.94
2022-08-25T17:51:45.697Z,38.44
2022-08-25T17:54:13.373Z,38.65
2022-08-25T17:56:40.943Z,38.50
2022-08-25T17:59:09.010Z,38.66
2022-08-25T18:01:40.418Z,39.03
2022-08-25T18:04:17.439Z,38.85
2022-08-25T18:06:45.913Z,39.25
2022-08-25T18:09:14.045Z,39.30
2022-08-25T18:11:42.630Z,39.23
2022-08-25T18:14:11.458Z,39.04
2022-08-25T18:16:38.975Z,39.01
2022-08-25T18:19:09.628Z,38.95
2022-08-25T18:21:37.342Z,39.15
2022-08-25T18:24:05.314Z,39.38
2022-08-25T18:26:33.064Z,39.30
2022-08-25T18:29:00.779Z,39.29
2022-08-25T18:31:28.451Z,39.29
2022-08-25T18:33:55.766Z,39.23
2022-08-25T18:36:23.005Z,39.18
2022-08-25T18:39:09.198Z,39.31
2022-08-25T18:41:40.338Z,39.13
2022-08-25T18:44:08.292Z,39.28
2022-08-25T18:46:38.276Z,39.04
2022-08-25T18:49:06.069Z,39.34
2022-08-25T18:51:33.468Z,39.44
2022-08-25T18:54:01.369Z,39.29
2022-08-25T18:56:29.435Z,39.18
2022-08-25T18:58:57.185Z,39.47
2022-08-25T19:01:24.614Z,39.21
2022-08-25T19:03:52.085Z,39.17
2022-08-25T19:06:20.667Z,39.06
2022-08-25T19:08:48.264Z,39.29
2022-08-25T19:11:16.491Z,39.19
2022-08-25T19:13:44.886Z,39.43
2022-08-25T19:16:14.015Z,39.28
2022-08-25T19:18:45.703Z,39.19
2022-08-25T19:21:13.490Z,39.29
2022-08-25T19:23:40.800Z,39.10
2022-08-25T19:26:09.056Z,39.06
2022-08-25T19:28:45.699Z,39.24
2022-08-25T19:31:16.586Z,39.05
2022-08-25T19:33:47.046Z,38.82
2022-08-25T19:36:14.405Z,38.51
2022-08-25T19:38:41.756Z,39.06
2022-08-25T19:41:13.905Z,38.82
2022-08-25T19:43:56.379Z,38.97
2022-08-25T19:46:32.826Z,39.14
2022-08-25T19:49:08.919Z,39.15
2022-08-25T19:51:41.016Z,38.91
2022-08-25T19:54:13.648Z,38.83
2022-08-25T19:56:43.996Z,38.91
2022-08-25T19:59:40.845Z,38.82
2022-08-25T20:02:15.886Z,38.77
2022-08-25T20:04:49.433Z,38.63
2022-08-25T20:07:19.061Z,38.96
2022-08-25T20:09:46.352Z,38.81
2022-08-25T20:14:47.203Z,38.85
2022-08-25T20:17:24.641Z,38.57
2022-08-25T20:19:55.459Z,38.59
2022-08-25T20:22:26.131Z,38.55
2022-08-25T20:24:58.808Z,38.49
2022-08-25T20:27:28.905Z,38.18
2022-08-25T20:29:56.673Z,38.38
2022-08-25T20:32:24.202Z,38.25
2022-08-25T20:34:53.386Z,38.24
2022-08-25T20:37:23.140Z,38.54
2022-08-25T20:39:51.825Z,38.14
2022-08-25T20:42:19.430Z,38.21
2022-08-25T20:44:47.178Z,38.15
2022-08-25T20:47:15.447Z,38.34
2022-08-25T20:49:44.958Z,38.34
2022-08-25T20:52:14.715Z,38.26
2022-08-25T20:54:46.980Z,38.19
2022-08-25T20:57:25.887Z,37.94
2022-08-25T20:59:54.875Z,38.23
2022-08-25T21:02:23.265Z,38.04
2022-08-25T21:04:51.273Z,37.99
2022-08-25T21:07:18.785Z,38.01
2022-08-25T21:09:46.349Z,38.12
2022-08-25T21:12:13.567Z,37.86
2022-08-25T21:14:41.777Z,37.81
2022-08-25T21:17:12.097Z,37.88
2022-08-25T21:19:41.739Z,38.04
2022-08-25T21:22:10.836Z,37.77
2022-08-25T21:24:38.565Z,37.79
2022-08-25T21:27:06.175Z,37.80
2022-08-25T21:29:33.634Z,37.47
2022-08-25T21:32:01.706Z,37.69
2022-08-25T21:34:29.498Z,37.62
2022-08-25T21:36:57.945Z,37.40
2022-08-25T21:39:27.625Z,37.55
2022-08-25T21:41:56.627Z,37.60
2022-08-25T21:44:24.391Z,37.55
2022-08-25T21:46:54.391Z,37.77
2022-08-25T21:49:23.213Z,37.69
2022-08-25T21:52:02.338Z,37.42
2022-08-25T21:54:30.760Z,37.30
2022-08-25T21:57:00.196Z,37.46
2022-08-25T21:59:32.153Z,37.38
2022-08-25T22:02:07.850Z,37.22
2022-08-25T22:04:36.638Z,36.97
2022-08-25T22:07:04.373Z,36.84
2022-08-25T22:09:31.907Z,36.96
2022-08-25T22:11:59.419Z,36.78
2022-08-25T22:14:26.990Z,37.02
2022-08-25T22:16:54.846Z,37.00
2022-08-25T22:19:23.048Z,36.92
2022-08-25T22:21:51.203Z,36.88
2022-08-25T22:24:19.072Z,36.82
2022-08-25T22:26:48.499Z,36.68
2022-08-25T22:29:24.743Z,36.70
2022-08-25T22:32:00.786Z,36.56
2022-08-25T22:34:34.401Z,36.49
2022-08-25T22:37:03.522Z,36.55
2022-08-25T22:39:31.395Z,36.25
2022-08-25T22:41:59.901Z,36.39
2022-08-25T22:44:27.304Z,36.24
2022-08-25T22:46:55.047Z,36.19
2022-08-25T22:49:22.704Z,36.32
2022-08-25T22:51:50.111Z,36.25
2022-08-25T22:54:18.203Z,36.17
2022-08-25T22:56:45.860Z,36.12
2022-08-25T22:59:13.604Z,36.17
2022-08-25T23:01:42.746Z,36.15
2022-08-25T23:04:10.802Z,36.00
2022-08-25T23:06:38.360Z,36.15
2022-08-25T23:09:06.368Z,35.95
2022-08-25T23:11:33.775Z,35.95
2022-08-25T23:14:02.291Z,35.72
2022-08-25T23:16:31.710Z,35.80
2022-08-25T23:18:59.563Z,35.91
2022-08-25T23:21:47.148Z,35.92
2022-08-25T23:24:27.084Z,35.73
2022-08-25T23:26:58.409Z,35.64
2022-08-25T23:29:25.948Z,35.70
2022-08-25T23:31:53.650Z,35.82
2022-08-25T23:34:21.641Z,35.91
2022-08-25T23:36:49.443Z,35.68
2022-08-25T23:39:16.708Z,35.67
2022-08-25T23:41:44.542Z,35.71
2022-08-25T23:44:17.475Z,35.58
2022-08-25T23:46:47.057Z,35.71
2022-08-25T23:49:18.514Z,35.90
2022-08-25T23:51:47.475Z,35.80
2022-08-25T23:54:16.293Z,35.73
2022-08-25T23:56:51.922Z,35.70
2022-08-25T23:59:24.619Z,35.63
